Time;durP1;ratioP1;P1;durP2;ratioP2;P2;SDS_P1;SDS_P2;PMS_P1;PMS_P2;Temp;Humidity;BMP_temperature;BMP_pressure;BME280_temperature;BME280_humidity;BME280_pressure;Samples;Min_cycle;Max_cycle;Signal;HPM_P1;HPM_P2
2023/05/19 00:02:04;;;;;;;16.30;6.90;;;;;;;;;;6217848;23;20366;-80
2023/05/19 00:04:30;;;;;;;16.50;6.35;;;;;;;;;;6217581;23;20400;-79
2023/05/19 00:06:59;;;;;;;18.63;6.00;;;;;;;;;;6242386;23;20392;-79
2023/05/19 00:09:25;;;;;;;13.88;6.20;;;;;;;;;;6241686;23;20392;-79
2023/05/19 00:11:51;;;;;;;13.85;6.43;;;;;;;;;;6242737;23;20427;-79
2023/05/19 00:14:17;;;;;;;16.87;6.80;;;;;;;;;;6217158;23;20393;-79
2023/05/19 00:16:44;;;;;;;13.95;6.07;;;;;;;;;;6242149;23;20378;-79
2023/05/19 00:19:10;;;;;;;15.55;6.13;;;;;;;;;;6243111;23;20377;-76
2023/05/19 00:21:39;;;;;;;13.73;5.97;;;;;;;;;;6244348;23;20358;-84
2023/05/19 00:24:06;;;;;;;16.02;6.28;;;;;;;;;;6245443;22;20361;-82
2023/05/19 00:26:32;;;;;;;18.38;6.65;;;;;;;;;;6243844;23;20372;-83
2023/05/19 00:28:58;;;;;;;18.85;6.85;;;;;;;;;;6243833;23;20365;-83
2023/05/19 00:31:24;;;;;;;13.20;6.05;;;;;;;;;;6219129;23;20370;-84
2023/05/19 00:33:51;;;;;;;16.50;6.63;;;;;;;;;;6221391;23;20386;-83
2023/05/19 00:36:17;;;;;;;14.02;6.18;;;;;;;;;;6220647;23;20388;-83
2023/05/19 00:38:43;;;;;;;18.83;6.78;;;;;;;;;;6218412;23;20358;-83
2023/05/19 00:41:09;;;;;;;17.60;6.93;;;;;;;;;;6243591;23;20369;-83
2023/05/19 00:43:35;;;;;;;16.08;6.50;;;;;;;;;;6245558;23;20366;-82
2023/05/19 00:46:02;;;;;;;14.70;6.57;;;;;;;;;;6248432;23;20844;-83
2023/05/19 00:48:28;;;;;;;17.58;6.95;;;;;;;;;;6249517;23;20727;-82
2023/05/19 00:51:02;;;;;;;16.37;7.43;;;;;;;;;;6246904;23;20419;-83
2023/05/19 00:53:29;;;;;;;19.40;7.32;;;;;;;;;;6220555;23;20719;-83
2023/05/19 00:55:55;;;;;;;15.82;7.10;;;;;;;;;;6246116;23;20426;-83
2023/05/19 00:58:22;;;;;;;17.40;7.78;;;;;;;;;;6220863;23;20362;-83
2023/05/19 01:00:49;;;;;;;16.20;7.22;;;8.40;99.90;;;;;;6246767;23;20362;-83
2023/05/19 01:03:19;;;;;;;17.87;7.47;;;;;;;;;;6221690;23;20377;-83
2023/05/19 01:05:46;;;;;;;19.90;7.67;;;;;;;;;;6220742;23;20449;-83
2023/05/19 01:08:12;;;;;;;17.30;7.50;;;;;;;;;;6245588;23;20886;-83
2023/05/19 01:10:38;;;;;;;18.52;7.53;;;;;;;;;;6246018;23;20406;-83
2023/05/19 01:13:05;;;;;;;17.42;7.43;;;8.60;99.90;;;;;;6246285;23;20393;-82
2023/05/19 01:15:35;;;;;;;18.10;7.55;;;;;;;;;;6220996;23;20397;-82
2023/05/19 01:18:10;;;;;;;19.35;7.95;;;8.10;99.90;;;;;;6246155;23;20368;-83
2023/05/19 01:20:45;;;;;;;16.52;7.82;;;8.20;99.90;;;;;;6245145;23;20750;-83
2023/05/19 01:23:29;;;;;;;18.67;7.28;;;8.30;99.90;;;;;;6219455;23;20393;-83
2023/05/19 01:26:01;;;;;;;19.23;7.97;;;;;;;;;;6245846;23;20376;-82
2023/05/19 01:28:31;;;;;;;16.30;7.70;;;;;;;;;;6245864;23;20369;-81
2023/05/19 01:30:59;;;;;;;19.63;8.25;;;8.20;99.90;;;;;;6245411;23;20362;-81
2023/05/19 01:33:26;;;;;;;19.00;8.05;;;;;;;;;;6244978;23;20386;-83
2023/05/19 01:35:54;;;;;;;17.45;7.55;;;7.80;99.90;;;;;;6244643;23;20366;-81
2023/05/19 01:38:20;;;;;;;19.05;7.95;;;;;;;;;;6245049;23;20366;-83
2023/05/19 01:40:48;;;;;;;20.17;8.15;;;8.10;99.90;;;;;;6220927;23;20365;-82
2023/05/19 01:43:20;;;;;;;18.55;8.48;;;8.10;99.90;;;;;;6219974;23;20401;-82
2023/05/19 01:45:47;;;;;;;21.98;9.05;;;;;;;;;;6245749;23;20381;-82
2023/05/19 01:48:13;;;;;;;18.55;8.65;;;;;;;;;;6220584;23;20432;-82
2023/05/19 01:50:40;;;;;;;22.67;8.80;;;;;;;;;;6245213;23;20665;-82
2023/05/19 01:53:06;;;;;;;20.55;8.95;;;;;;;;;;6244536;23;20397;-83
2023/05/19 01:55:32;;;;;;;22.20;9.15;;;;;;;;;;6220675;23;20687;-83
2023/05/19 01:58:13;;;;;;;20.33;9.20;;;8.30;99.90;;;;;;6245764;23;20362;-83
2023/05/19 02:01:02;;;;;;;19.27;8.68;;;;;;;;;;6245306;23;20377;-83
2023/05/19 02:03:31;;;;;;;20.35;8.48;;;;;;;;;;6244948;23;20420;-83
2023/05/19 02:05:57;;;;;;;18.35;8.90;;;;;;;;;;6244701;23;20366;-82
2023/05/19 02:08:29;;;;;;;21.20;8.75;;;7.80;99.90;;;;;;6245732;23;20362;-82
2023/05/19 02:11:06;;;;;;;18.92;8.70;;;7.90;99.90;;;;;;6220654;23;20425;-81
2023/05/19 02:13:37;;;;;;;16.75;8.90;;;8.00;99.90;;;;;;6245624;23;20420;-80
2023/05/19 02:16:05;;;;;;;17.05;8.50;;;;;;;;;;6247166;22;20385;-82
2023/05/19 02:18:34;;;;;;;22.35;9.18;;;;;;;;;;6245554;23;20370;-82
2023/05/19 02:21:00;;;;;;;20.58;8.55;;;;;;;;;;6244462;23;20394;-83
2023/05/19 02:23:26;;;;;;;19.13;8.80;;;;;;;;;;6220397;23;20381;-83
2023/05/19 02:25:53;;;;;;;19.13;8.67;;;;;;;;;;6243012;23;20366;-81
2023/05/19 02:28:19;;;;;;;20.98;9.25;;;;;;;;;;6244734;23;20835;-82
2023/05/19 02:30:45;;;;;;;18.45;8.68;;;;;;;;;;6245434;23;20369;-81
2023/05/19 02:33:11;;;;;;;19.38;8.32;;;;;;;;;;6244617;23;20461;-82
2023/05/19 02:35:37;;;;;;;16.70;8.27;;;;;;;;;;6220210;23;20366;-82
2023/05/19 02:38:03;;;;;;;22.77;8.95;;;;;;;;;;6244756;23;20369;-82
2023/05/19 02:40:29;;;;;;;19.67;8.82;;;;;;;;;;6219120;23;20398;-81
2023/05/19 02:42:55;;;;;;;21.90;8.82;;;;;;;;;;6247572;23;20410;-82
2023/05/19 02:45:21;;;;;;;19.52;8.70;;;;;;;;;;6220898;23;20700;-82
2023/05/19 02:47:47;;;;;;;21.10;8.75;;;;;;;;;;6194988;23;20362;-82
2023/05/19 02:50:13;;;;;;;19.63;9.02;;;;;;;;;;6244724;23;20366;-83
2023/05/19 02:52:39;;;;;;;22.42;8.93;;;;;;;;;;6244690;23;20827;-82
2023/05/19 02:55:06;;;;;;;21.85;9.20;;;;;;;;;;6244568;23;20632;-82
2023/05/19 02:57:32;;;;;;;22.55;9.30;;;;;;;;;;6244875;23;20835;-81
2023/05/19 02:59:58;;;;;;;22.90;8.80;;;;;;;;;;6194479;23;20369;-81
2023/05/19 03:02:24;;;;;;;21.25;8.75;;;;;;;;;;6244244;23;20394;-82
2023/05/19 03:04:50;;;;;;;18.30;8.32;;;;;;;;;;6244021;23;20365;-82
2023/05/19 03:07:16;;;;;;;22.10;8.82;;;;;;;;;;6244605;23;20370;-81
2023/05/19 03:09:43;;;;;;;25.13;8.70;;;;;;;;;;6244210;23;20425;-81
2023/05/19 03:12:09;;;;;;;20.38;8.27;;;;;;;;;;6244780;23;20430;-81
2023/05/19 03:14:38;;;;;;;19.43;9.07;;;;;;;;;;6243982;23;20453;-82
2023/05/19 03:17:06;;;;;;;22.25;8.60;;;;;;;;;;6243687;23;20381;-82
2023/05/19 03:19:32;;;;;;;23.50;8.63;;;;;;;;;;6244285;23;20361;-82
2023/05/19 03:21:58;;;;;;;18.40;8.18;;;;;;;;;;6194551;23;20428;-82
2023/05/19 03:24:24;;;;;;;22.73;8.70;;;;;;;;;;6218438;23;20448;-82
2023/05/19 03:26:51;;;;;;;23.88;8.95;;;;;;;;;;6220010;23;20427;-82
2023/05/19 03:29:17;;;;;;;16.13;7.80;;;;;;;;;;6244761;23;20365;-83
2023/05/19 03:31:43;;;;;;;16.38;7.70;;;;;;;;;;6243977;23;20358;-82
2023/05/19 03:34:09;;;;;;;20.20;7.97;;;;;;;;;;6218172;23;20488;-82
2023/05/19 03:36:38;;;;;;;16.97;8.20;;;;;;;;;;6219538;23;20700;-82
2023/05/19 03:39:08;;;;;;;23.02;8.63;;;;;;;;;;6244291;23;20416;-82
2023/05/19 03:41:34;;;;;;;17.38;7.53;;;;;;;;;;6243372;23;20366;-82
2023/05/19 03:44:00;;;;;;;22.05;8.13;;;;;;;;;;6244043;23;20370;-81
2023/05/19 03:46:26;;;;;;;23.65;7.85;;;;;;;;;;6218130;23;20378;-82
2023/05/19 03:48:52;;;;;;;15.60;7.03;;;;;;;;;;6218415;23;20436;-83
2023/05/19 03:51:18;;;;;;;18.10;7.40;;;;;;;;;;6219418;23;20795;-83
2023/05/19 03:53:44;;;;;;;18.02;7.75;;;;;;;;;;6244657;23;20393;-83
2023/05/19 03:56:12;;;;;;;16.48;6.82;;;;;;;;;;6244255;23;20441;-83
2023/05/19 03:58:42;;;;;;;16.83;7.20;;;;;;;;;;6244591;23;20357;-82
2023/05/19 04:01:08;;;;;;;16.30;7.70;;;;;;;;;;6244149;23;20445;-82
2023/05/19 04:03:36;;;;;;;14.57;6.90;;;;;;;;;;6245450;23;20393;-81
2023/05/19 04:06:02;;;;;;;15.65;6.78;;;;;;;;;;6244707;23;20429;-81
2023/05/19 04:08:28;;;;;;;18.37;7.50;;;;;;;;;;6243020;23;20369;-81
2023/05/19 04:10:55;;;;;;;15.57;6.82;;;;;;;;;;6243535;23;20362;-83
2023/05/19 04:13:21;;;;;;;19.43;7.20;;;;;;;;;;6245146;23;20473;-82
2023/05/19 04:15:47;;;;;;;19.55;7.63;;;;;;;;;;6218967;23;20704;-82
2023/05/19 04:18:13;;;;;;;19.05;7.93;;;;;;;;;;6219381;23;20366;-82
2023/05/19 04:20:39;;;;;;;16.73;7.63;;;;;;;;;;6244472;23;20358;-82
2023/05/19 04:23:06;;;;;;;21.55;8.13;;;;;;;;;;6245574;23;20373;-82
2023/05/19 04:25:32;;;;;;;18.33;7.80;;;;;;;;;;6243401;23;20388;-82
2023/05/19 04:27:59;;;;;;;23.45;9.00;;;;;;;;;;6218261;23;20365;-81
2023/05/19 04:30:25;;;;;;;25.33;9.40;;;;;;;;;;6245753;22;20358;-81
2023/05/19 04:32:51;;;;;;;19.40;8.50;;;;;;;;;;6192441;23;20362;-81
2023/05/19 04:35:18;;;;;;;22.40;9.02;;;;;;;;;;6218256;23;20445;-81
2023/05/19 04:37:47;;;;;;;23.85;9.50;;;;;;;;;;6244202;23;20362;-81
2023/05/19 04:40:16;;;;;;;25.75;9.90;;;;;;;;;;6218598;23;20362;-81
2023/05/19 04:42:44;;;;;;;22.97;9.43;;;;;;;;;;6218667;23;20551;-82
2023/05/19 04:45:13;;;;;;;27.02;9.48;;;;;;;;;;6219100;23;20431;-82
2023/05/19 04:47:40;;;;;;;30.30;10.23;;;;;;;;;;6244759;23;20401;-82
2023/05/19 04:50:09;;;;;;;28.35;9.95;;;;;;;;;;6244021;23;20366;-81
2023/05/19 04:52:35;;;;;;;25.00;10.52;;;;;;;;;;6244307;23;20844;-81
2023/05/19 04:55:01;;;;;;;30.52;10.82;;;;;;;;;;6243451;23;20429;-81
2023/05/19 04:57:27;;;;;;;27.25;10.45;;;;;;;;;;6217873;23;20393;-81
2023/05/19 04:59:58;;;;;;;20.27;9.60;;;;;;;;;;6243195;23;20670;-80
2023/05/19 05:02:26;;;;;;;25.90;10.32;;;;;;;;;;6243695;23;20397;-80
2023/05/19 05:04:53;;;;;;;20.20;10.27;;;;;;;;;;6218464;23;20370;-81
2023/05/19 05:07:22;;;;;;;18.63;9.75;;;7.80;99.90;;;;;;6242615;23;20366;-81
2023/05/19 05:09:49;;;;;;;22.43;9.60;;;;;;;;;;6243240;23;20843;-81
2023/05/19 05:12:15;;;;;;;24.02;10.10;;;;;;;;;;6244438;23;20407;-83
2023/05/19 05:14:41;;;;;;;27.58;11.00;;;;;;;;;;6243321;23;20433;-82
2023/05/19 05:17:08;;;;;;;22.67;9.68;;;;;;;;;;6217198;23;20378;-81
2023/05/19 05:19:35;;;;;;;25.60;10.10;;;;;;;;;;6243212;23;20835;-82
2023/05/19 05:22:01;;;;;;;20.65;9.90;;;;;;;;;;6243444;23;20367;-80
2023/05/19 05:24:27;;;;;;;21.83;9.52;;;;;;;;;;6243946;23;20416;-80
2023/05/19 05:26:53;;;;;;;23.38;10.15;;;;;;;;;;6244298;23;20366;-80
2023/05/19 05:29:20;;;;;;;19.42;9.63;;;;;;;;;;6217707;23;20885;-80
2023/05/19 05:31:46;;;;;;;20.60;9.48;;;;;;;;;;6243737;23;20701;-81
2023/05/19 05:34:12;;;;;;;24.92;9.73;;;;;;;;;;6193879;23;20704;-81
2023/05/19 05:36:38;;;;;;;19.97;9.23;;;;;;;;;;6220094;23;20377;-81
2023/05/19 05:39:04;;;;;;;21.33;9.80;;;;;;;;;;6245049;23;20448;-81
2023/05/19 05:41:34;;;;;;;22.95;9.85;;;;;;;;;;6245142;23;20816;-80
2023/05/19 05:44:03;;;;;;;21.60;8.98;;;;;;;;;;6245629;23;20373;-81
2023/05/19 05:46:29;;;;;;;21.58;9.55;;;;;;;;;;6244192;23;20385;-82
2023/05/19 05:48:55;;;;;;;20.15;8.55;;;;;;;;;;6248179;23;20830;-81
2023/05/19 05:51:22;;;;;;;21.55;9.07;;;;;;;;;;6247136;23;20370;-82
2023/05/19 05:53:51;;;;;;;21.35;8.57;;;;;;;;;;6245671;23;20848;-81
2023/05/19 05:56:17;;;;;;;18.30;8.65;;;;;;;;;;6244974;23;20369;-80
2023/05/19 05:58:43;;;;;;;19.23;8.02;;;;;;;;;;6220659;23;20361;-81
2023/05/19 06:01:10;;;;;;;17.40;8.10;;;;;;;;;;6221064;23;20835;-81
2023/05/19 06:03:41;;;;;;;16.58;8.27;;;10.20;99.90;;;;;;6246877;23;20450;-82
2023/05/19 06:06:07;;;;;;;14.80;8.50;;;;;;;;;;6245702;23;20373;-81
2023/05/19 06:08:33;;;;;;;17.25;8.13;;;;;;;;;;6246994;23;20373;-81
2023/05/19 06:10:59;;;;;;;16.93;7.80;;;;;;;;;;6219740;23;20370;-80
2023/05/19 06:13:25;;;;;;;14.68;7.13;;;;;;;;;;6218439;23;21083;-80
2023/05/19 06:15:51;;;;;;;17.45;7.20;;;;;;;;;;6219123;23;20459;-81
2023/05/19 06:18:18;;;;;;;15.18;7.55;;;;;;;;;;6246275;23;20372;-82
2023/05/19 06:20:44;;;;;;;13.25;7.25;;;;;;;;;;6220719;23;20369;-83
2023/05/19 06:23:10;;;;;;;14.10;7.27;;;;;;;;;;6220122;23;20365;-82
2023/05/19 06:25:36;;;;;;;13.65;6.72;;;;;;;;;;6246503;23;20870;-80
2023/05/19 06:28:02;;;;;;;13.93;6.65;;;;;;;;;;6221672;23;20369;-80
2023/05/19 06:30:28;;;;;;;17.38;6.95;;;;;;;;;;6244596;23;20361;-77
2023/05/19 06:32:55;;;;;;;14.95;6.50;;;;;;;;;;6218776;23;20460;-77
2023/05/19 06:35:21;;;;;;;13.13;5.78;;;;;;;;;;6191289;23;20469;-77
2023/05/19 06:37:47;;;;;;;12.30;5.70;;;;;;;;;;6218877;23;20432;-76
2023/05/19 06:40:13;;;;;;;12.60;5.43;;;;;;;;;;6218548;23;20366;-78
2023/05/19 06:42:39;;;;;;;12.73;5.93;;;;;;;;;;6240433;23;20450;-78
2023/05/19 06:45:06;;;;;;;13.68;6.00;;;;;;;;;;6240126;23;20374;-77
2023/05/19 06:47:32;;;;;;;13.85;6.25;;;;;;;;;;6241633;23;20419;-77
2023/05/19 06:49:58;;;;;;;13.23;5.75;;;;;;;;;;6242823;23;20366;-79
2023/05/19 06:52:24;;;;;;;13.40;6.03;;;;;;;;;;6243715;23;20366;-78
2023/05/19 06:54:50;;;;;;;13.90;5.78;;;;;;;;;;6193881;23;20409;-78
2023/05/19 06:57:16;;;;;;;12.88;5.80;;;;;;;;;;6193231;23;20755;-78
2023/05/19 06:59:45;;;;;;;13.03;5.33;;;;;;;;;;6193039;23;20362;-78
2023/05/19 07:02:11;;;;;;;12.02;5.70;;;;;;;;;;6194495;23;20362;-78
2023/05/19 07:04:39;;;;;;;12.10;5.30;;;;;;;;;;6218101;23;20383;-77
2023/05/19 07:07:05;;;;;;;12.75;5.13;;;;;;;;;;6216400;23;20664;-79
2023/05/19 07:09:32;;;;;;;13.27;4.80;;;;;;;;;;6217889;23;20365;-77
2023/05/19 07:11:58;;;;;;;13.55;5.05;;;;;;;;;;6193343;23;20404;-75
2023/05/19 07:14:24;;;;;;;10.18;4.20;;;;;;;;;;6217443;23;20389;-76
2023/05/19 07:16:50;;;;;;;10.60;4.13;;;;;;;;;;6218618;23;20406;-77
2023/05/19 07:19:18;;;;;;;9.90;4.57;;;;;;;;;;6192319;23;20404;-76
2023/05/19 07:21:47;;;;;;;13.88;4.65;;;;;;;;;;6216047;23;20996;-76
2023/05/19 07:24:13;;;;;;;11.63;4.30;;;;;;;;;;6243122;23;20379;-76
2023/05/19 07:26:40;;;;;;;9.63;4.32;;;;;;;;;;6217260;23;20674;-77
2023/05/19 07:29:06;;;;;;;11.38;4.30;;;;;;;;;;6192499;23;20824;-78
2023/05/19 07:31:32;;;;;;;13.40;4.50;;;;;;;;;;6193040;23;20442;-77
2023/05/19 07:33:58;;;;;;;11.18;4.53;;;;;;;;;;6216047;23;20425;-77
2023/05/19 07:36:24;;;;;;;11.77;4.60;;;;;;;;;;6243374;23;20420;-77
2023/05/19 07:38:50;;;;;;;13.15;4.72;;;;;;;;;;6241179;23;20401;-78
2023/05/19 07:41:16;;;;;;;8.27;4.20;;;;;;;;;;6192297;23;20862;-79
2023/05/19 07:43:42;;;;;;;10.13;4.03;;;;;;;;;;6217310;23;20377;-78
2023/05/19 07:46:08;;;;;;;9.95;3.70;;;;;;;;;;6241417;23;20366;-78
2023/05/19 07:48:35;;;;;;;11.73;4.28;;;;;;;;;;6241426;23;20362;-77
2023/05/19 07:51:01;;;;;;;10.63;3.80;;;;;;;;;;6241108;23;20982;-77
2023/05/19 07:53:27;;;;;;;10.98;4.80;;;;;;;;;;6215743;23;20465;-77
2023/05/19 07:55:53;;;;;;;10.57;4.32;;;;;;;;;;6214716;23;20883;-76
2023/05/19 07:58:19;;;;;;;11.20;3.85;;;;;;;;;;6214818;23;20416;-76
2023/05/19 08:00:45;;;;;;;10.00;3.70;;;;;;;;;;6214712;23;20369;-75
2023/05/19 08:03:12;;;;;;;10.15;3.88;;;;;;;;;;6217026;23;20454;-76
2023/05/19 08:05:39;;;;;;;8.88;3.10;;;;;;;;;;6240118;23;20393;-76
2023/05/19 08:08:05;;;;;;;9.35;3.40;;;;;;;;;;6242126;23;20366;-77
2023/05/19 08:10:31;;;;;;;11.25;3.40;;;;;;;;;;6240114;23;20692;-76
2023/05/19 08:12:57;;;;;;;7.75;3.70;;;15.30;99.90;;;;;;6240075;23;20416;-78
2023/05/19 08:15:24;;;;;;;10.02;3.78;;;;;;;;;;6241270;23;20400;-78
2023/05/19 08:17:50;;;;;;;11.73;4.30;;;;;;;;;;6217342;23;20366;-78
2023/05/19 08:20:16;;;;;;;10.48;3.60;;;15.80;99.90;;;;;;6239917;23;20370;-78
2023/05/19 08:22:42;;;;;;;8.95;3.35;;;;;;;;;;6237802;23;20851;-77
2023/05/19 08:25:08;;;;;;;12.98;3.72;;;16.20;99.90;;;;;;6241365;23;20369;-76
2023/05/19 08:27:35;;;;;;;8.68;3.47;;;;;;;;;;6190852;23;20492;-76
2023/05/19 08:30:01;;;;;;;10.03;3.40;;;;;;;;;;6239909;23;20366;-77
2023/05/19 08:32:27;;;;;;;11.35;3.80;;;;;;;;;;6216073;23;20401;-77
2023/05/19 08:34:53;;;;;;;8.02;3.30;;;;;;;;;;6242373;23;20863;-77
2023/05/19 08:37:19;;;;;;;10.60;3.58;;;;;;;;;;6242846;23;20362;-76
2023/05/19 08:39:45;;;;;;;9.00;3.40;;;;;;;;;;6217829;23;20384;-76
2023/05/19 08:42:11;;;;;;;9.38;3.38;;;15.90;99.90;;;;;;6193686;23;20444;-77
2023/05/19 08:44:38;;;;;;;7.80;3.30;;;;;;;;;;6217479;23;20417;-77
2023/05/19 08:47:11;;;;;;;9.82;3.58;;;;;;;;;;6241249;23;20680;-76
2023/05/19 08:49:42;;;;;;;10.35;3.75;;;;;;;;;;6242712;23;20377;-76
2023/05/19 08:52:20;;;;;;;11.25;3.70;;;;;;;;;;6211500;23;20373;-77
2023/05/19 08:55:03;;;;;;;8.18;3.65;;;16.60;99.90;;;;;;6238783;23;20536;-77
2023/05/19 08:57:29;;;;;;;7.63;3.30;;;;;;;;;;6242481;23;20366;-76
2023/05/19 08:59:56;;;;;;;8.82;3.35;;;;;;;;;;6240505;23;20366;-77
2023/05/19 09:02:22;;;;;;;9.10;3.42;;;;;;;;;;6192424;23;20416;-77
2023/05/19 09:04:48;;;;;;;9.88;3.03;;;;;;;;;;6241553;23;20366;-77
2023/05/19 09:07:14;;;;;;;6.85;2.90;;;;;;;;;;6242685;23;21080;-78
2023/05/19 09:09:42;;;;;;;7.40;3.00;;;;;;;;;;6218660;23;20369;-78
2023/05/19 09:12:12;;;;;;;7.00;3.03;;;;;;;;;;6242524;23;20366;-78
2023/05/19 09:14:38;;;;;;;7.32;3.03;;;17.40;99.90;;;;;;6243002;23;20394;-78
2023/05/19 09:17:05;;;;;;;6.90;2.80;;;;;;;;;;6217996;23;20528;-77
2023/05/19 09:19:31;;;;;;;7.40;3.28;;;;;;;;;;6239552;23;20366;-77
2023/05/19 09:22:00;;;;;;;8.50;3.28;;;;;;;;;;6214617;23;20390;-76
2023/05/19 09:24:27;;;;;;;10.70;3.38;;;17.30;99.90;;;;;;6246099;23;20362;-76
2023/05/19 09:26:57;;;;;;;7.75;3.25;;;17.20;99.90;;;;;;6241941;23;20377;-76
2023/05/19 09:29:24;;;;;;;8.30;3.05;;;;;;;;;;6218215;23;20401;-76
2023/05/19 09:31:59;;;;;;;9.05;2.78;;;17.60;99.90;;;;;;6217172;23;20399;-76
2023/05/19 09:34:25;;;;;;;7.28;3.00;;;;;;;;;;6243293;23;20389;-75
2023/05/19 09:36:52;;;;;;;7.25;2.63;;;17.80;99.90;;;;;;6243336;23;20372;-76
2023/05/19 09:39:20;;;;;;;8.30;3.10;;;17.20;99.90;;;;;;6242205;23;20396;-76
2023/05/19 09:41:50;;;;;;;7.45;2.80;;;17.40;99.90;;;;;;6244311;23;20397;-76
2023/05/19 09:44:29;;;;;;;7.15;2.80;;;17.50;99.90;;;;;;6243496;23;20369;-75
2023/05/19 09:46:55;;;;;;;8.95;2.88;;;;;;;;;;6239884;23;20373;-74
2023/05/19 09:49:30;;;;;;;9.73;3.08;;;18.20;99.90;;;;;;6241138;23;20436;-75
2023/05/19 09:51:57;;;;;;;6.50;3.00;;;18.30;99.90;;;;;;6242506;23;20370;-75
2023/05/19 09:54:24;;;;;;;9.73;3.08;;;;;;;;;;6192521;23;20460;-76
2023/05/19 09:57:16;;;;;;;7.97;3.00;;;18.50;99.90;;;;;;6217997;23;20377;-76
2023/05/19 09:59:43;;;;;;;7.80;3.05;;;18.60;99.90;;;;;;6214729;23;20373;-76
2023/05/19 10:02:16;;;;;;;8.55;2.72;;;18.40;99.90;;;;;;6243057;23;20445;-77
2023/05/19 10:04:43;;;;;;;9.25;2.85;;;18.10;99.90;;;;;;6241810;23;20376;-75
2023/05/19 10:07:10;;;;;;;8.20;2.67;;;18.20;99.90;;;;;;6243081;23;20847;-77
2023/05/19 10:09:36;;;;;;;7.88;2.78;;;;;;;;;;6241044;23;20423;-76
2023/05/19 10:12:03;;;;;;;8.48;2.92;;;18.10;99.90;;;;;;6215779;23;20401;-76
2023/05/19 10:14:29;;;;;;;7.93;2.70;;;;;;;;;;6215602;23;20385;-77
2023/05/19 10:16:58;;;;;;;5.83;2.53;;;;;;;;;;6243196;23;20840;-77
2023/05/19 10:19:25;;;;;;;6.05;2.63;;;;;;;;;;6238966;23;20362;-76
2023/05/19 10:21:55;;;;;;;8.17;2.77;;;;;;;;;;6242409;23;20361;-76
2023/05/19 10:24:21;;;;;;;7.13;2.75;;;18.40;99.90;;;;;;6239739;23;20457;-76
2023/05/19 10:27:13;;;;;;;7.43;2.80;;;18.50;99.70;;;;;;6241728;23;20374;-76
2023/05/19 10:29:41;;;;;;;6.88;3.10;;;;;;;;;;6241800;23;20405;-76
2023/05/19 10:32:11;;;;;;;6.82;2.85;;;;;;;;;;6242827;23;20401;-76
2023/05/19 10:35:14;;;;;;;8.20;2.92;;;19.00;98.00;;;;;;6242007;23;20444;-76
2023/05/19 10:37:58;;;;;;;6.57;2.97;;;;;;;;;;6240114;23;20687;-77
2023/05/19 10:40:31;;;;;;;7.25;2.92;;;;;;;;;;6241109;23;20366;-77
2023/05/19 10:43:20;;;;;;;6.13;2.30;;;19.10;96.40;;;;;;6244314;23;20366;-77
2023/05/19 10:45:52;;;;;;;6.72;2.30;;;;;;;;;;6240430;23;20468;-77
2023/05/19 10:48:21;;;;;;;5.30;2.28;;;18.90;94.40;;;;;;6241085;23;20362;-77
2023/05/19 10:50:51;;;;;;;5.07;2.17;;;18.50;92.30;;;;;;6239535;23;20920;-77
2023/05/19 10:53:18;;;;;;;4.78;2.50;;;;;;;;;;6240087;23;20366;-77
2023/05/19 10:56:02;;;;;;;7.47;2.27;;;19.10;95.50;;;;;;6235368;23;20761;-77
2023/05/19 10:58:57;;;;;;;5.82;2.70;;;19.20;95.00;;;;;;6213721;23;20404;-77
2023/05/19 11:01:30;;;;;;;7.80;2.33;;;19.20;95.10;;;;;;6201581;23;20362;-77
2023/05/19 11:03:56;;;;;;;7.22;2.50;;;19.50;94.70;;;;;;6241700;23;20377;-77
2023/05/19 11:06:30;;;;;;;6.13;2.38;;;18.50;92.70;;;;;;6243581;23;20366;-77
2023/05/19 11:09:17;;;;;;;5.13;2.15;;;18.30;92.80;;;;;;6218045;23;20365;-77
2023/05/19 11:11:45;;;;;;;5.68;2.40;;;;;;;;;;6240548;23;21010;-77
2023/05/19 11:14:13;;;;;;;5.53;2.17;;;18.80;93.40;;;;;;6239346;23;20394;-76
2023/05/19 11:16:44;;;;;;;7.05;2.40;;;19.10;92.40;;;;;;6240018;23;20388;-76
2023/05/19 11:19:18;;;;;;;5.30;2.30;;;19.00;92.50;;;;;;6216543;23;20420;-77
2023/05/19 11:21:53;;;;;;;8.13;2.47;;;;;;;;;;6240536;22;20394;-77
2023/05/19 11:24:35;;;;;;;5.57;2.60;;;;;;;;;;6242115;23;20801;-77
2023/05/19 11:27:25;;;;;;;7.85;2.40;;;19.80;91.50;;;;;;6239274;23;20453;-77
2023/05/19 11:29:50;;;;;;;5.45;2.17;;;20.10;91.70;;;;;;6241879;23;20373;-75
2023/05/19 11:32:18;;;;;;;4.97;2.10;;;19.20;90.90;;;;;;6241459;23;20373;-77
2023/05/19 11:34:44;;;;;;;6.85;2.22;;;19.90;91.90;;;;;;6242042;23;20941;-77
2023/05/19 11:37:11;;;;;;;6.95;2.22;;;19.40;91.10;;;;;;6216562;23;20428;-77
2023/05/19 11:39:38;;;;;;;6.03;2.22;;;19.00;91.40;;;;;;6239973;23;20370;-77
2023/05/19 11:42:04;;;;;;;7.53;2.10;;;;;;;;;;6240495;23;20832;-77
2023/05/19 11:44:30;;;;;;;8.13;2.42;;;19.30;91.70;;;;;;6240958;23;20370;-77
2023/05/19 11:46:59;;;;;;;7.13;2.78;;;18.90;91.80;;;;;;6215286;23;20369;-77
2023/05/19 11:49:28;;;;;;;6.80;2.60;;;19.10;92.40;;;;;;6241092;23;20369;-77
2023/05/19 11:51:54;;;;;;;6.47;2.38;;;20.00;92.50;;;;;;6242813;23;20735;-77
2023/05/19 11:54:20;;;;;;;6.63;2.28;;;19.70;91.50;;;;;;6240637;23;20390;-75
2023/05/19 11:56:46;;;;;;;5.28;2.20;;;20.10;91.40;;;;;;6215744;23;20372;-78
2023/05/19 11:59:12;;;;;;;6.03;2.65;;;20.50;90.70;;;;;;6242862;23;20362;-77
2023/05/19 12:01:38;;;;;;;7.82;2.90;;;20.20;91.20;;;;;;6238167;23;20377;-76
2023/05/19 12:04:10;;;;;;;8.27;2.70;;;20.30;91.60;;;;;;6238279;23;20374;-78
2023/05/19 12:06:36;;;;;;;6.97;2.55;;;20.70;91.50;;;;;;6212990;23;20377;-82
2023/05/19 12:09:04;;;;;;;7.83;2.80;;;21.00;91.30;;;;;;6242062;23;20369;-76
2023/05/19 12:11:30;;;;;;;9.15;3.08;;;20.40;92.20;;;;;;6190052;23;20365;-77
2023/05/19 12:14:00;;;;;;;7.32;2.80;;;20.30;91.30;;;;;;6213519;23;20449;-77
2023/05/19 12:16:34;;;;;;;6.78;2.70;;;20.00;92.10;;;;;;6212129;23;20385;-77
2023/05/19 12:19:00;;;;;;;6.68;2.50;;;20.40;91.40;;;;;;6240573;23;20420;-77
2023/05/19 12:21:26;;;;;;;6.82;2.97;;;20.70;91.60;;;;;;6212842;23;20374;-78
2023/05/19 12:23:52;;;;;;;8.27;3.17;;;20.10;90.70;;;;;;6240060;23;20377;-78
2023/05/19 12:26:21;;;;;;;6.32;2.92;;;20.40;91.20;;;;;;6238547;23;20370;-76
2023/05/19 12:28:49;;;;;;;6.63;2.90;;;20.90;91.10;;;;;;6239095;23;20427;-78
2023/05/19 12:31:15;;;;;;;8.20;3.08;;;21.30;90.60;;;;;;6238943;23;20469;-78
2023/05/19 12:33:42;;;;;;;10.00;3.20;;;21.40;90.90;;;;;;6215464;23;20731;-78
2023/05/19 12:36:08;;;;;;;7.70;3.20;;;20.30;91.40;;;;;;6239781;23;20901;-78
2023/05/19 12:38:36;;;;;;;7.55;2.88;;;20.20;91.30;;;;;;6238788;23;20448;-79
2023/05/19 12:41:02;;;;;;;7.55;2.97;;;20.30;91.40;;;;;;6215638;23;20444;-78
2023/05/19 12:43:28;;;;;;;8.88;2.80;;;20.50;91.70;;;;;;6215650;23;20409;-78
2023/05/19 12:45:53;;;;;;;8.25;3.10;;;20.60;92.00;;;;;;6242123;23;20455;-76
2023/05/19 12:48:22;;;;;;;8.50;3.08;;;20.50;91.40;;;;;;6241143;23;20373;-79
2023/05/19 12:50:51;;;;;;;7.72;3.05;;;19.80;92.20;;;;;;6242408;23;20847;-78
2023/05/19 12:53:17;;;;;;;6.55;2.95;;;20.40;91.70;;;;;;6239315;23;20374;-75
2023/05/19 12:55:44;;;;;;;8.00;2.80;;;20.70;91.40;;;;;;6238444;23;20368;-77
2023/05/19 12:58:11;;;;;;;8.68;2.78;;;20.30;92.00;;;;;;6241350;23;20362;-78
2023/05/19 13:00:42;;;;;;;7.73;3.10;;;20.90;91.50;;;;;;6235779;23;20369;-77
2023/05/19 13:03:17;;;;;;;6.28;2.55;;;21.50;92.00;;;;;;6192987;23;20365;-77
2023/05/19 13:05:45;;;;;;;7.50;2.63;;;20.90;90.90;;;;;;6241953;23;20358;-77
2023/05/19 13:08:16;;;;;;;8.10;3.15;;;20.70;92.00;;;;;;6192653;23;20907;-77
2023/05/19 13:10:44;;;;;;;8.45;2.92;;;20.80;91.90;;;;;;6240900;23;20844;-77
2023/05/19 13:13:11;;;;;;;8.45;3.25;;;20.60;92.10;;;;;;6240630;23;20373;-77
2023/05/19 13:15:39;;;;;;;8.23;2.90;;;20.60;92.10;;;;;;6240404;23;20448;-77
2023/05/19 13:18:08;;;;;;;8.20;3.08;;;21.10;92.10;;;;;;6241828;23;20365;-77
2023/05/19 13:20:34;;;;;;;7.93;3.33;;;21.30;91.10;;;;;;6242989;23;20366;-77
2023/05/19 13:23:01;;;;;;;7.47;3.20;;;21.70;91.40;;;;;;6244079;23;20761;-77
2023/05/19 13:25:27;;;;;;;8.55;3.40;;;21.60;91.10;;;;;;6216284;23;20837;-76
2023/05/19 13:27:58;;;;;;;8.00;3.33;;;21.30;90.40;;;;;;6242238;23;20370;-77
2023/05/19 13:30:24;;;;;;;7.93;2.90;;;21.70;90.80;;;;;;6238419;23;20676;-77
2023/05/19 13:32:51;;;;;;;7.90;3.22;;;20.90;90.80;;;;;;6239458;23;20364;-78
2023/05/19 13:35:17;;;;;;;7.88;3.30;;;20.90;91.50;;;;;;6240950;23;20393;-78
2023/05/19 13:37:43;;;;;;;7.45;3.17;;;21.30;91.50;;;;;;6213658;23;20385;-78
2023/05/19 13:40:09;;;;;;;7.20;3.20;;;21.20;91.80;;;;;;6237457;23;20369;-78
2023/05/19 13:42:35;;;;;;;7.90;3.58;;;20.80;91.30;;;;;;6239473;23;20370;-78
2023/05/19 13:45:01;;;;;;;8.05;2.90;;;21.10;92.00;;;;;;6214272;23;20374;-78
2023/05/19 13:47:27;;;;;;;7.78;3.22;;;21.60;91.80;;;;;;6244681;22;20859;-78
2023/05/19 13:49:53;;;;;;;7.40;3.00;;;21.30;91.70;;;;;;6189980;23;20362;-77
2023/05/19 13:52:20;;;;;;;8.70;3.13;;;20.80;92.20;;;;;;6241732;23;20824;-76
2023/05/19 13:54:46;;;;;;;7.85;3.55;;;20.30;92.60;;;;;;6240617;23;20451;-78
2023/05/19 13:57:12;;;;;;;7.53;3.08;;;20.90;92.50;;;;;;6242180;23;20807;-78
2023/05/19 13:59:38;;;;;;;6.43;3.00;;;20.90;92.20;;;;;;6239261;23;20398;-80